Time;durP1;ratioP1;P1;durP2;ratioP2;P2;SDS_P1;SDS_P2;PMS_P1;PMS_P2;Temp;Humidity;BMP_temperature;BMP_pressure;BME280_temperature;BME280_humidity;BME280_pressure;Samples;Min_cycle;Max_cycle;Signal;HPM_P1;HPM_P2
2021/11/13 00:02:13;;;;;;;15.07;10.27;;;10.00;86.00;;;;;;5056552;28;20029;-77
2021/11/13 00:04:38;;;;;;;13.50;9.98;;;10.00;86.20;;;;;;5054138;28;20024;-77
2021/11/13 00:07:04;;;;;;;15.77;11.25;;;10.00;86.20;;;;;;5053876;28;20029;-77
2021/11/13 00:09:30;;;;;;;15.57;11.95;;;10.00;86.20;;;;;;5057655;28;20391;-77
2021/11/13 00:11:57;;;;;;;16.33;12.68;;;10.00;86.30;;;;;;5056180;28;20432;-77
2021/11/13 00:14:23;;;;;;;12.30;8.93;;;9.90;87.30;;;;;;5056709;28;20067;-77
2021/11/13 00:16:48;;;;;;;16.50;11.63;;;10.00;86.90;;;;;;5054895;28;20056;-77
2021/11/13 00:19:14;;;;;;;15.93;11.85;;;9.90;87.10;;;;;;5059893;28;20037;-77
2021/11/13 00:21:40;;;;;;;15.02;10.85;;;9.90;87.20;;;;;;5059471;28;20017;-77
2021/11/13 00:24:07;;;;;;;15.77;12.10;;;10.00;87.40;;;;;;5055616;28;20062;-77
2021/11/13 00:26:32;;;;;;;18.13;12.85;;;9.90;87.40;;;;;;5057442;28;20356;-76
2021/11/13 00:28:58;;;;;;;15.18;10.13;;;10.00;87.80;;;;;;5058314;28;20032;-76
2021/11/13 00:31:23;;;;;;;16.23;11.18;;;10.00;87.70;;;;;;5051999;28;20508;-76
2021/11/13 00:33:49;;;;;;;18.17;13.05;;;10.00;87.80;;;;;;5052213;28;20029;-75
2021/11/13 00:36:15;;;;;;;19.38;13.35;;;10.00;88.10;;;;;;5052035;28;20032;-76
2021/11/13 00:38:40;;;;;;;17.58;13.40;;;10.00;88.10;;;;;;5053400;28;20071;-76
2021/11/13 00:41:06;;;;;;;27.00;17.45;;;10.00;88.10;;;;;;5052961;28;20029;-76
2021/11/13 00:43:31;;;;;;;15.18;11.18;;;10.00;88.30;;;;;;5052308;28;20125;-75
2021/11/13 00:45:57;;;;;;;13.88;10.02;;;10.00;88.40;;;;;;5052530;28;20056;-76
2021/11/13 00:48:23;;;;;;;17.13;12.50;;;10.00;88.30;;;;;;5053397;28;20025;-76
2021/11/13 00:50:49;;;;;;;14.93;10.60;;;10.00;88.50;;;;;;5052260;28;20035;-77
2021/11/13 00:53:16;;;;;;;20.55;15.15;;;10.00;88.40;;;;;;5051468;28;20021;-77
2021/11/13 00:55:42;;;;;;;17.35;12.85;;;10.00;88.40;;;;;;5049500;28;20075;-76
2021/11/13 00:58:07;;;;;;;23.13;16.30;;;10.10;88.50;;;;;;5052085;28;20395;-76
2021/11/13 01:00:33;;;;;;;19.67;13.80;;;10.00;88.60;;;;;;5051942;28;20131;-75
2021/11/13 01:02:59;;;;;;;18.00;13.30;;;10.00;88.70;;;;;;5051707;28;20450;-76
2021/11/13 01:05:24;;;;;;;24.45;17.45;;;10.10;88.70;;;;;;5050932;28;20041;-76
2021/11/13 01:07:50;;;;;;;14.75;11.02;;;10.00;89.00;;;;;;5052172;28;20053;-76
2021/11/13 01:10:19;;;;;;;25.90;18.25;;;10.00;89.10;;;;;;5052342;28;20086;-77
2021/11/13 01:12:47;;;;;;;25.73;17.13;;;10.00;89.10;;;;;;5050059;28;20082;-76
2021/11/13 01:15:14;;;;;;;15.95;10.25;;;10.00;89.20;;;;;;5052092;28;20402;-77
2021/11/13 01:17:40;;;;;;;13.55;10.20;;;10.10;89.10;;;;;;5052318;28;20104;-77
2021/11/13 01:20:10;;;;;;;20.85;14.35;;;10.10;89.00;;;;;;5052625;28;20597;-76
2021/11/13 01:22:37;;;;;;;22.02;14.38;;;10.10;89.00;;;;;;5051740;28;20082;-76
2021/11/13 01:25:04;;;;;;;22.23;16.58;;;10.10;89.20;;;;;;5051808;28;20398;-76
2021/11/13 01:27:29;;;;;;;22.50;15.40;;;10.10;89.40;;;;;;5052102;28;20171;-76
2021/11/13 01:29:55;;;;;;;18.23;12.75;;;10.10;89.40;;;;;;5051710;28;20112;-76
2021/11/13 01:32:20;;;;;;;18.13;12.43;;;10.10;89.30;;;;;;5051471;28;20063;-76
2021/11/13 01:34:46;;;;;;;26.45;18.50;;;10.10;89.20;;;;;;5051433;28;20151;-75
2021/11/13 01:37:12;;;;;;;19.30;14.40;;;10.10;89.30;;;;;;5050950;28;20040;-75
2021/11/13 01:39:38;;;;;;;22.60;15.43;;;10.10;89.30;;;;;;5052261;28;20036;-75
2021/11/13 01:42:05;;;;;;;17.13;11.50;;;10.10;89.90;;;;;;5050680;28;20100;-75
2021/11/13 01:44:31;;;;;;;16.83;11.20;;;10.10;89.30;;;;;;5050834;28;20024;-75
2021/11/13 01:46:57;;;;;;;19.65;12.73;;;10.20;89.40;;;;;;5050630;28;20025;-75
2021/11/13 01:49:23;;;;;;;14.30;10.00;;;10.20;89.30;;;;;;5044102;28;20053;-75
2021/11/13 01:51:49;;;;;;;24.83;17.85;;;10.20;89.20;;;;;;5049199;28;20017;-75
2021/11/13 01:54:17;;;;;;;22.17;16.00;;;10.20;89.20;;;;;;5047917;28;20025;-75
2021/11/13 01:56:43;;;;;;;17.73;12.93;;;10.20;89.30;;;;;;5050577;28;20029;-75
2021/11/13 01:59:09;;;;;;;20.73;15.57;;;10.20;89.40;;;;;;5045372;28;20097;-75
2021/11/13 02:01:36;;;;;;;21.33;14.73;;;10.20;89.50;;;;;;5045748;28;20025;-75
2021/11/13 02:04:02;;;;;;;17.13;11.80;;;10.20;89.60;;;;;;5052275;28;20346;-75
2021/11/13 02:06:29;;;;;;;18.15;13.55;;;10.20;89.50;;;;;;5044895;28;20017;-75
2021/11/13 02:08:55;;;;;;;14.68;11.32;;;10.20;89.50;;;;;;5043259;28;20032;-75
2021/11/13 02:11:23;;;;;;;19.63;14.82;;;10.20;89.50;;;;;;5044526;28;20030;-74
2021/11/13 02:13:50;;;;;;;15.20;12.07;;;10.20;89.70;;;;;;5051490;28;20029;-75
2021/11/13 02:16:16;;;;;;;14.00;10.25;;;10.20;90.20;;;;;;5052316;28;20025;-75
2021/11/13 02:18:43;;;;;;;13.23;9.52;;;10.20;89.90;;;;;;5050694;28;20085;-75
2021/11/13 02:21:09;;;;;;;14.55;10.80;;;10.20;89.80;;;;;;5050036;28;20365;-75
2021/11/13 02:23:36;;;;;;;13.73;10.43;;;10.30;89.80;;;;;;5048137;28;20399;-75
2021/11/13 02:26:02;;;;;;;18.45;12.60;;;10.30;89.80;;;;;;5052314;28;20423;-75
2021/11/13 02:28:28;;;;;;;14.40;10.07;;;10.30;89.80;;;;;;5051424;28;20031;-75
2021/11/13 02:30:56;;;;;;;14.20;10.40;;;10.30;89.90;;;;;;5047878;28;20025;-75
2021/11/13 02:33:23;;;;;;;14.48;10.73;;;10.30;89.90;;;;;;5051349;28;20029;-75
2021/11/13 02:35:53;;;;;;;14.10;11.07;;;10.30;89.90;;;;;;5047873;28;20028;-74
2021/11/13 02:38:24;;;;;;;13.35;9.93;;;10.30;89.90;;;;;;5049884;28;20051;-76
2021/11/13 02:40:56;;;;;;;14.50;10.93;;;10.30;89.90;;;;;;5052002;28;20052;-75
2021/11/13 02:43:26;;;;;;;12.02;9.00;;;10.30;89.90;;;;;;5052263;28;20017;-75
2021/11/13 02:45:58;;;;;;;11.57;9.07;;;10.30;89.80;;;;;;5048424;28;20047;-75
2021/11/13 02:48:25;;;;;;;13.45;10.38;;;10.30;89.90;;;;;;5048272;28;20025;-75
2021/11/13 02:50:51;;;;;;;11.93;9.20;;;10.40;89.90;;;;;;5050447;28;20056;-75
2021/11/13 02:53:23;;;;;;;11.07;8.15;;;10.40;89.90;;;;;;5050410;28;20063;-75
2021/11/13 02:55:50;;;;;;;12.15;8.73;;;10.40;89.90;;;;;;5051134;28;20036;-74
2021/11/13 02:58:16;;;;;;;21.13;16.88;;;10.40;90.10;;;;;;5050226;28;20029;-75
2021/11/13 03:00:43;;;;;;;13.45;11.10;;;10.40;90.30;;;;;;5051404;28;20021;-75
2021/11/13 03:03:08;;;;;;;16.15;12.35;;;10.40;90.10;;;;;;5050161;28;20460;-75
2021/11/13 03:05:52;;;;;;;18.33;14.07;;;10.40;90.10;;;;;;5050903;28;20132;-75
2021/11/13 03:08:29;;;;;;;13.40;9.93;;;10.40;90.20;;;;;;5050822;28;20074;-75
2021/11/13 03:10:57;;;;;;;15.45;11.40;;;10.40;90.10;;;;;;5049832;28;20129;-75
2021/11/13 03:13:23;;;;;;;13.48;10.52;;;10.40;90.10;;;;;;5048623;28;20082;-76
2021/11/13 03:15:50;;;;;;;12.20;9.80;;;10.50;90.10;;;;;;5049447;28;20120;-75
2021/11/13 03:18:17;;;;;;;16.15;11.70;;;10.50;90.00;;;;;;5050135;28;20028;-75
2021/11/13 03:20:42;;;;;;;15.60;12.20;;;10.50;90.00;;;;;;5051002;28;20032;-75
2021/11/13 03:23:08;;;;;;;20.25;14.52;;;10.50;90.10;;;;;;5050515;28;20144;-76
2021/11/13 03:25:40;;;;;;;15.70;11.95;;;10.50;90.10;;;;;;5065871;28;20024;-75
2021/11/13 03:28:12;;;;;;;14.93;11.43;;;10.50;90.20;;;;;;5049736;28;20091;-76
2021/11/13 03:30:39;;;;;;;13.30;9.85;;;10.50;90.20;;;;;;5051434;28;20040;-75
2021/11/13 03:33:05;;;;;;;17.80;13.30;;;10.60;90.20;;;;;;5050087;28;20032;-75
2021/11/13 03:35:32;;;;;;;13.10;9.85;;;10.50;90.10;;;;;;5050620;28;20102;-75
2021/11/13 03:38:10;;;;;;;14.35;11.00;;;10.60;90.20;;;;;;5048709;28;20132;-75
2021/11/13 03:40:39;;;;;;;25.88;18.90;;;10.60;90.10;;;;;;5042873;28;20070;-75
2021/11/13 03:43:05;;;;;;;16.63;12.77;;;10.60;90.10;;;;;;5046893;28;20108;-75
2021/11/13 03:45:32;;;;;;;14.98;10.55;;;10.60;90.20;;;;;;5050291;28;20039;-75
2021/11/13 03:47:58;;;;;;;15.88;12.68;;;10.60;90.20;;;;;;5050081;28;20029;-75
2021/11/13 03:50:24;;;;;;;16.35;11.07;;;10.60;90.20;;;;;;5050388;28;20036;-76
2021/11/13 03:52:51;;;;;;;18.95;13.52;;;10.60;90.30;;;;;;5049549;28;20411;-75
2021/11/13 03:55:17;;;;;;;15.80;11.25;;;10.60;90.30;;;;;;5049348;28;20411;-76
2021/11/13 03:57:42;;;;;;;19.63;15.23;;;10.70;90.20;;;;;;5050635;28;20134;-75
2021/11/13 04:00:09;;;;;;;14.48;10.88;;;10.70;90.20;;;;;;5051417;28;20397;-75
2021/11/13 04:02:35;;;;;;;24.02;17.25;;;10.70;90.30;;;;;;5054533;28;20383;-75
2021/11/13 04:05:01;;;;;;;13.70;9.45;;;10.70;90.30;;;;;;5053748;28;20029;-76
2021/11/13 04:07:27;;;;;;;14.60;11.23;;;10.70;90.30;;;;;;5053518;28;20083;-75
2021/11/13 04:09:52;;;;;;;13.18;10.23;;;10.70;90.30;;;;;;5054824;28;20090;-75
2021/11/13 04:12:18;;;;;;;14.82;10.73;;;10.70;90.30;;;;;;5054336;28;20474;-75
2021/11/13 04:14:45;;;;;;;16.58;12.52;;;10.70;90.20;;;;;;5053742;28;20025;-75
2021/11/13 04:17:11;;;;;;;17.05;13.05;;;10.80;90.30;;;;;;5052067;28;20044;-75
2021/11/13 04:19:36;;;;;;;17.02;12.55;;;10.80;90.30;;;;;;5054089;28;20033;-75
2021/11/13 04:22:02;;;;;;;24.38;16.17;;;10.80;90.30;;;;;;5054076;28;20036;-75
2021/11/13 04:24:28;;;;;;;24.90;18.73;;;10.80;90.30;;;;;;5053581;28;20071;-75
2021/11/13 04:26:53;;;;;;;20.15;14.50;;;10.80;90.40;;;;;;5052831;28;20505;-76
2021/11/13 04:29:19;;;;;;;18.83;13.95;;;10.80;90.40;;;;;;5053788;28;20430;-75
2021/11/13 04:31:45;;;;;;;13.65;10.55;;;10.80;90.40;;;;;;5053121;28;20021;-75
2021/11/13 04:34:19;;;;;;;13.30;10.10;;;10.80;90.40;;;;;;5053523;28;20029;-75
2021/11/13 04:36:46;;;;;;;16.20;12.25;;;10.80;90.40;;;;;;5052926;28;20059;-75
2021/11/13 04:39:13;;;;;;;17.50;13.48;;;10.80;90.40;;;;;;5051507;28;20029;-75
2021/11/13 04:41:40;;;;;;;18.92;13.07;;;10.80;90.40;;;;;;5059643;28;20382;-75
2021/11/13 04:44:05;;;;;;;19.85;13.32;;;10.80;90.40;;;;;;5056287;28;20035;-75
2021/11/13 04:46:31;;;;;;;16.63;11.68;;;10.80;90.50;;;;;;5053127;28;20025;-74
2021/11/13 04:48:57;;;;;;;13.23;9.52;;;10.90;90.50;;;;;;5051235;28;20039;-75
2021/11/13 04:51:23;;;;;;;17.58;12.88;;;10.90;90.40;;;;;;5052903;28;20079;-76
2021/11/13 04:53:49;;;;;;;14.70;11.45;;;10.90;90.40;;;;;;5051890;28;20040;-74
2021/11/13 04:56:15;;;;;;;14.98;11.07;;;10.90;90.30;;;;;;5052523;28;20108;-74
2021/11/13 04:58:42;;;;;;;17.83;13.18;;;10.90;90.30;;;;;;5052658;28;20103;-75
2021/11/13 05:01:07;;;;;;;10.77;8.13;;;10.90;90.30;;;;;;5052053;28;20393;-74
2021/11/13 05:03:33;;;;;;;16.17;13.05;;;11.00;90.30;;;;;;5052445;28;20037;-74
2021/11/13 05:05:59;;;;;;;14.27;10.95;;;11.00;90.30;;;;;;5052226;28;20426;-75
2021/11/13 05:08:25;;;;;;;15.68;12.02;;;11.00;90.30;;;;;;5052819;28;20021;-75
2021/11/13 05:10:50;;;;;;;16.67;12.70;;;11.00;90.60;;;;;;5051907;28;20491;-74
2021/11/13 05:13:17;;;;;;;16.40;11.77;;;11.00;90.30;;;;;;5051322;28;20082;-75
2021/11/13 05:15:43;;;;;;;12.25;9.90;;;11.00;90.30;;;;;;5050786;28;20031;-75
2021/11/13 05:18:09;;;;;;;13.15;9.30;;;11.00;90.40;;;;;;5053091;28;20117;-75
2021/11/13 05:20:35;;;;;;;13.02;10.00;;;11.00;90.40;;;;;;5051852;28;20450;-75
2021/11/13 05:23:00;;;;;;;15.55;11.93;;;11.00;90.40;;;;;;5052564;28;20112;-75
2021/11/13 05:25:26;;;;;;;11.93;9.02;;;11.00;90.30;;;;;;5052226;28;20024;-75
2021/11/13 05:27:52;;;;;;;11.65;9.10;;;11.00;90.30;;;;;;5052456;28;20098;-76
2021/11/13 05:30:20;;;;;;;13.65;10.35;;;11.10;90.40;;;;;;5051937;28;20021;-74
2021/11/13 05:32:46;;;;;;;10.85;8.70;;;11.10;90.30;;;;;;5050952;28;20033;-75
2021/11/13 05:35:12;;;;;;;9.10;7.60;;;11.00;90.30;;;;;;5049916;28;20021;-76
2021/11/13 05:37:38;;;;;;;10.35;7.63;;;11.00;90.30;;;;;;5052687;28;20374;-76
2021/11/13 05:40:06;;;;;;;13.32;9.82;;;11.00;90.30;;;;;;5054633;28;20505;-74
2021/11/13 05:42:32;;;;;;;13.68;9.93;;;11.10;90.30;;;;;;5050652;28;20059;-75
2021/11/13 05:44:58;;;;;;;11.10;8.25;;;11.10;90.40;;;;;;5051766;28;20098;-75
2021/11/13 05:47:25;;;;;;;9.90;7.75;;;11.10;90.40;;;;;;5051102;28;20477;-74
2021/11/13 05:49:51;;;;;;;9.32;7.07;;;11.10;90.30;;;;;;5051645;28;20040;-75
2021/11/13 05:52:17;;;;;;;8.20;6.90;;;11.10;90.30;;;;;;5057572;28;20024;-75
2021/11/13 05:54:42;;;;;;;10.57;8.60;;;11.20;90.30;;;;;;5051041;28;20048;-75
2021/11/13 05:57:08;;;;;;;12.00;9.70;;;11.20;90.20;;;;;;5051542;28;20025;-75
2021/11/13 05:59:34;;;;;;;11.82;9.63;;;11.20;90.20;;;;;;5051589;28;20649;-75
2021/11/13 06:01:59;;;;;;;11.60;8.52;;;11.20;90.20;;;;;;5051320;28;20499;-76
2021/11/13 06:04:25;;;;;;;6.60;5.30;;;11.20;90.20;;;;;;5049587;28;20116;-76
2021/11/13 06:06:50;;;;;;;7.20;5.93;;;11.10;90.20;;;;;;5051146;28;20471;-76
2021/11/13 06:09:16;;;;;;;5.63;4.65;;;11.10;90.30;;;;;;5050990;28;20115;-76
2021/11/13 06:11:41;;;;;;;6.35;4.53;;;11.10;90.30;;;;;;5051143;28;20107;-76
2021/11/13 06:14:07;;;;;;;3.10;2.50;;;11.10;90.30;;;;;;5050030;28;20039;-75
2021/11/13 06:16:32;;;;;;;3.88;3.03;;;11.10;90.30;;;;;;5049821;28;20115;-75
2021/11/13 06:18:58;;;;;;;6.45;4.03;;;11.10;90.30;;;;;;5051077;28;20033;-75
2021/11/13 06:21:23;;;;;;;6.10;5.03;;;11.10;90.30;;;;;;5049541;28;20386;-75
2021/11/13 06:23:49;;;;;;;7.65;5.70;;;11.10;90.40;;;;;;5048545;28;20021;-75
2021/11/13 06:26:15;;;;;;;6.43;5.07;;;11.10;90.40;;;;;;5050795;28;20025;-75
2021/11/13 06:28:41;;;;;;;7.85;6.05;;;11.10;90.40;;;;;;5050658;28;20078;-75
2021/11/13 06:31:07;;;;;;;7.20;6.20;;;11.10;90.50;;;;;;5050697;28;20075;-75
2021/11/13 06:33:32;;;;;;;8.18;6.50;;;11.10;90.50;;;;;;5049647;28;20045;-75
2021/11/13 06:35:58;;;;;;;6.68;5.53;;;11.10;90.40;;;;;;5050344;28;20063;-75
2021/11/13 06:38:24;;;;;;;11.60;8.70;;;11.20;90.40;;;;;;5050081;28;20083;-75
2021/11/13 06:40:49;;;;;;;8.65;6.93;;;11.20;90.40;;;;;;5049637;28;20037;-75
2021/11/13 06:43:15;;;;;;;8.95;6.82;;;11.20;90.40;;;;;;5049865;28;20111;-76
2021/11/13 06:45:41;;;;;;;9.18;7.60;;;11.20;90.40;;;;;;5048648;28;20040;-76
2021/11/13 06:48:06;;;;;;;10.48;8.85;;;11.20;90.30;;;;;;5046605;28;20017;-76
2021/11/13 06:50:33;;;;;;;8.80;7.05;;;11.20;90.40;;;;;;5054109;28;20048;-76
2021/11/13 06:52:59;;;;;;;9.27;7.00;;;11.20;90.40;;;;;;5049633;28;20032;-76
2021/11/13 06:55:25;;;;;;;10.65;7.82;;;11.30;90.30;;;;;;5044922;28;20099;-76
2021/11/13 06:57:50;;;;;;;8.48;6.63;;;11.30;90.30;;;;;;5049950;28;20029;-76
2021/11/13 07:00:19;;;;;;;11.88;8.98;;;11.30;90.30;;;;;;5049889;28;20071;-77
2021/11/13 07:02:45;;;;;;;9.68;8.30;;;11.30;90.30;;;;;;5049720;28;20636;-77
2021/11/13 07:05:11;;;;;;;9.15;7.60;;;11.20;90.30;;;;;;5049140;28;20081;-77
2021/11/13 07:07:38;;;;;;;9.80;7.70;;;11.30;90.40;;;;;;5049787;28;20037;-76
2021/11/13 07:10:10;;;;;;;10.32;7.88;;;11.30;90.30;;;;;;5050047;28;20029;-77
2021/11/13 07:12:36;;;;;;;10.18;8.55;;;11.30;90.30;;;;;;5048917;28;20021;-77
2021/11/13 07:15:03;;;;;;;9.48;7.40;;;11.30;90.30;;;;;;5049276;28;20516;-77
2021/11/13 07:17:29;;;;;;;10.25;8.40;;;11.40;90.30;;;;;;5049432;28;20036;-77
2021/11/13 07:19:54;;;;;;;9.65;7.80;;;11.30;90.30;;;;;;5049139;28;20036;-76
2021/11/13 07:22:20;;;;;;;12.57;9.77;;;11.30;90.30;;;;;;5049853;28;20144;-77
2021/11/13 07:24:45;;;;;;;11.63;8.93;;;11.30;90.30;;;;;;5048378;28;20039;-76
2021/11/13 07:27:12;;;;;;;10.25;8.93;;;11.30;90.30;;;;;;5049207;28;20021;-77
2021/11/13 07:29:46;;;;;;;6.05;5.18;;;11.30;90.40;;;;;;5049998;28;20037;-77
2021/11/13 07:32:13;;;;;;;6.93;6.15;;;11.30;90.30;;;;;;5047964;28;20386;-77
2021/11/13 07:34:41;;;;;;;7.05;5.80;;;11.30;90.30;;;;;;5048714;28;20025;-83
2021/11/13 07:37:08;;;;;;;8.20;6.55;;;11.40;90.30;;;;;;5030979;28;20021;-76
2021/11/13 07:39:34;;;;;;;8.75;7.05;;;11.40;90.20;;;;;;5049221;28;20483;-77
2021/11/13 07:41:59;;;;;;;10.20;8.75;;;11.40;90.20;;;;;;5049936;28;20115;-77
2021/11/13 07:44:25;;;;;;;8.25;6.57;;;11.40;90.20;;;;;;5049096;28;20441;-77
2021/11/13 07:46:50;;;;;;;9.35;7.82;;;11.40;90.20;;;;;;5048433;28;20037;-77
2021/11/13 07:49:16;;;;;;;7.63;6.53;;;11.50;90.20;;;;;;5048803;28;20082;-78
2021/11/13 07:51:42;;;;;;;7.07;5.82;;;11.40;90.20;;;;;;5047848;28;20544;-78
2021/11/13 07:54:10;;;;;;;8.80;7.30;;;11.50;90.20;;;;;;5046571;28;20021;-78
2021/11/13 07:56:36;;;;;;;9.38;7.50;;;11.50;90.20;;;;;;5047275;28;20391;-78
2021/11/13 07:59:02;;;;;;;8.57;6.07;;;11.50;90.20;;;;;;5050401;28;20087;-78
2021/11/13 08:01:28;;;;;;;10.27;8.18;;;11.50;90.10;;;;;;5049185;28;20036;-78
2021/11/13 08:03:53;;;;;;;8.88;7.32;;;11.50;90.20;;;;;;5049584;28;20025;-78
2021/11/13 08:06:19;;;;;;;11.07;8.07;;;11.60;90.20;;;;;;5049043;28;20028;-78
2021/11/13 08:08:44;;;;;;;11.30;9.00;;;11.60;90.20;;;;;;5049771;28;20215;-78
2021/11/13 08:11:10;;;;;;;10.48;8.45;;;11.60;90.20;;;;;;5046797;28;20116;-77
2021/11/13 08:13:39;;;;;;;11.55;8.95;;;11.50;90.20;;;;;;5048944;28;20025;-77
2021/11/13 08:16:05;;;;;;;6.68;5.40;;;11.50;90.20;;;;;;5049402;28;20033;-77
2021/11/13 08:18:31;;;;;;;9.52;7.82;;;11.60;90.20;;;;;;5051919;28;20079;-78
2021/11/13 08:20:59;;;;;;;6.20;5.07;;;11.60;90.20;;;;;;5047611;28;20037;-77
2021/11/13 08:23:25;;;;;;;10.60;8.02;;;11.50;90.20;;;;;;5047429;28;20054;-77
2021/11/13 08:25:52;;;;;;;8.43;6.55;;;11.60;90.20;;;;;;5047884;28;20027;-78
2021/11/13 08:28:19;;;;;;;9.82;8.30;;;11.60;90.20;;;;;;5047979;28;20558;-77
2021/11/13 08:30:44;;;;;;;11.05;8.10;;;11.60;90.10;;;;;;5049534;28;20083;-78
2021/11/13 08:33:10;;;;;;;9.55;7.93;;;11.60;90.10;;;;;;5048936;28;20013;-78
2021/11/13 08:35:38;;;;;;;10.82;7.95;;;11.70;90.20;;;;;;5049480;28;20399;-78
2021/11/13 08:38:05;;;;;;;9.30;7.25;;;11.70;90.20;;;;;;5049022;28;20024;-77
2021/11/13 08:40:30;;;;;;;7.97;6.55;;;11.70;90.20;;;;;;5049139;28;20033;-77
2021/11/13 08:42:56;;;;;;;11.18;9.45;;;11.70;90.20;;;;;;5048814;28;20040;-77
2021/11/13 08:45:22;;;;;;;10.70;7.97;;;11.70;90.10;;;;;;5049460;28;20036;-77
2021/11/13 08:47:47;;;;;;;9.70;8.02;;;11.70;90.20;;;;;;5052773;28;20364;-78
2021/11/13 08:50:19;;;;;;;10.73;8.30;;;11.70;90.20;;;;;;5053034;28;20029;-77
2021/11/13 08:52:47;;;;;;;10.10;7.80;;;11.70;90.20;;;;;;5051665;28;20021;-77
2021/11/13 08:55:13;;;;;;;11.52;8.98;;;11.70;90.20;;;;;;5052372;28;20021;-78
2021/11/13 08:57:41;;;;;;;12.05;9.23;;;11.70;90.20;;;;;;5052865;28;20059;-78
2021/11/13 09:00:08;;;;;;;7.78;6.68;;;11.70;90.20;;;;;;5051556;28;20086;-77
2021/11/13 09:02:34;;;;;;;9.15;7.07;;;11.80;90.30;;;;;;5050991;28;20029;-77
2021/11/13 09:05:00;;;;;;;10.65;7.95;;;11.80;90.20;;;;;;5052304;28;20112;-77
2021/11/13 09:07:26;;;;;;;7.35;6.15;;;11.80;90.20;;;;;;5050808;28;20025;-77
2021/11/13 09:09:52;;;;;;;8.15;6.43;;;11.90;90.20;;;;;;5052962;28;20454;-78
2021/11/13 09:12:25;;;;;;;12.05;9.88;;;11.90;90.20;;;;;;5052126;28;20242;-77
2021/11/13 09:14:57;;;;;;;9.77;7.65;;;11.90;90.10;;;;;;5052121;28;20040;-76
2021/11/13 09:17:24;;;;;;;10.80;8.07;;;12.00;90.10;;;;;;5043183;28;20025;-76
2021/11/13 09:19:49;;;;;;;11.15;8.15;;;11.90;90.10;;;;;;5052787;28;20037;-76
2021/11/13 09:22:15;;;;;;;7.78;5.93;;;12.00;90.10;;;;;;5052506;28;20029;-76
2021/11/13 09:24:41;;;;;;;9.13;7.05;;;12.00;90.10;;;;;;5052307;28;20033;-76
2021/11/13 09:27:07;;;;;;;12.52;8.85;;;12.00;90.10;;;;;;5054198;28;20046;-77
2021/11/13 09:29:33;;;;;;;10.40;8.00;;;12.00;90.10;;;;;;5052322;28;20040;-76
2021/11/13 09:31:58;;;;;;;8.75;6.78;;;12.00;90.10;;;;;;5050671;28;20021;-76
2021/11/13 09:34:24;;;;;;;9.73;8.02;;;12.00;90.10;;;;;;5050341;28;20057;-77
2021/11/13 09:36:50;;;;;;;12.65;8.63;;;12.10;90.40;;;;;;5052003;28;20028;-76
2021/11/13 09:39:17;;;;;;;12.95;8.82;;;12.20;90.10;;;;;;5050315;28;20049;-76
2021/11/13 09:41:44;;;;;;;9.43;7.30;;;12.20;90.10;;;;;;5053449;28;20021;-77
2021/11/13 09:44:10;;;;;;;6.80;5.32;;;12.20;90.00;;;;;;5050677;28;20467;-77
2021/11/13 09:46:35;;;;;;;14.95;9.93;;;12.20;90.00;;;;;;5050563;28;20059;-76
2021/11/13 09:49:02;;;;;;;47.85;32.38;;;12.20;90.00;;;;;;5049719;28;20426;-76
2021/11/13 09:51:28;;;;;;;35.35;25.90;;;12.20;90.00;;;;;;5050307;28;20021;-77
2021/11/13 09:53:55;;;;;;;20.52;15.55;;;12.30;90.00;;;;;;5050130;28;20033;-77
2021/11/13 09:56:22;;;;;;;17.13;13.40;;;12.40;90.00;;;;;;5049076;28;20067;-77
2021/11/13 09:58:48;;;;;;;24.35;21.77;;;12.40;90.00;;;;;;5050231;28;20047;-77
2021/11/13 10:01:13;;;;;;;12.32;10.63;;;12.40;89.80;;;;;;5048548;28;20017;-77
2021/11/13 10:03:39;;;;;;;9.23;7.00;;;12.40;89.90;;;;;;5050603;28;20029;-77
2021/11/13 10:06:07;;;;;;;10.38;8.38;;;12.50;89.90;;;;;;5051460;28;20520;-77
2021/11/13 10:08:33;;;;;;;11.60;8.60;;;12.50;89.80;;;;;;5050614;28;20475;-77
2021/11/13 10:11:12;;;;;;;11.25;9.05;;;12.50;89.80;;;;;;5049529;28;20025;-76
2021/11/13 10:13:44;;;;;;;10.60;8.68;;;12.50;89.80;;;;;;5050208;28;20116;-76
2021/11/13 10:16:18;;;;;;;11.60;9.87;;;12.50;89.80;;;;;;5051238;28;20432;-77
2021/11/13 10:18:50;;;;;;;12.55;9.85;;;12.60;89.80;;;;;;5042304;28;20287;-77
2021/11/13 10:21:27;;;;;;;12.60;9.90;;;12.60;89.70;;;;;;5047010;28;20032;-77
2021/11/13 10:23:59;;;;;;;11.95;9.80;;;12.70;89.70;;;;;;5048458;28;20279;-77
2021/11/13 10:26:30;;;;;;;11.15;7.85;;;12.70;89.60;;;;;;5049500;28;20049;-76
2021/11/13 10:28:55;;;;;;;9.98;7.18;;;12.70;89.60;;;;;;5050666;28;20017;-77
2021/11/13 10:31:23;;;;;;;9.40;7.05;;;12.70;90.10;;;;;;5049031;28;20037;-77
2021/11/13 10:33:50;;;;;;;7.50;5.45;;;12.70;89.60;;;;;;5048012;28;20502;-77
2021/11/13 10:36:47;;;;;;;7.82;6.40;;;12.70;89.60;;;;;;5048995;28;20591;-76
2021/11/13 10:39:20;;;;;;;9.55;7.22;;;12.80;89.50;;;;;;5048142;28;20049;-76
2021/11/13 10:41:58;;;;;;;8.80;6.40;;;12.80;89.40;;;;;;5048921;28;20115;-77
2021/11/13 10:44:32;;;;;;;6.90;5.63;;;12.90;89.50;;;;;;5046760;28;20118;-76
2021/11/13 10:46:59;;;;;;;6.88;4.90;;;12.90;89.40;;;;;;5049857;28;20032;-78
2021/11/13 10:49:25;;;;;;;10.60;6.53;;;13.00;89.30;;;;;;5050450;28;20033;-78
2021/11/13 10:52:00;;;;;;;9.15;6.68;;;13.00;89.20;;;;;;5050552;28;20024;-78
2021/11/13 10:54:26;;;;;;;7.57;5.90;;;13.00;89.20;;;;;;5047188;28;20120;-78
2021/11/13 10:57:04;;;;;;;10.32;6.85;;;13.00;89.10;;;;;;5049911;28;20033;-78
2021/11/13 10:59:31;;;;;;;5.88;4.75;;;13.00;89.20;;;;;;5043944;28;20127;-78
2021/11/13 11:02:02;;;;;;;9.60;6.97;;;13.00;89.10;;;;;;5049307;28;20742;-78
2021/11/13 11:04:31;;;;;;;8.02;5.25;;;13.00;89.00;;;;;;5046192;28;20036;-79
2021/11/13 11:07:23;;;;;;;8.50;6.22;;;13.00;89.00;;;;;;5050740;28;20480;-78
2021/11/13 11:10:08;;;;;;;11.65;7.68;;;13.00;89.10;;;;;;5047832;28;20147;-78
2021/11/13 11:12:35;;;;;;;9.00;6.55;;;13.00;89.10;;;;;;5045158;28;20028;-78
2021/11/13 11:15:11;;;;;;;8.05;5.30;;;13.00;89.10;;;;;;5048879;28;20033;-78
2021/11/13 11:17:37;;;;;;;9.07;6.88;;;13.10;89.10;;;;;;5050393;28;20021;-78
2021/11/13 11:20:05;;;;;;;9.27;6.15;;;13.10;89.00;;;;;;5049433;28;20045;-78
2021/11/13 11:22:31;;;;;;;8.98;7.32;;;13.10;88.90;;;;;;5049488;28;20029;-78
2021/11/13 11:25:14;;;;;;;8.75;7.05;;;13.10;88.90;;;;;;5048146;28;20024;-79
2021/11/13 11:27:47;;;;;;;;;;;13.10;88.90;;;;;;5049899;28;20591;-79
2021/11/13 11:30:18;;;;;;;7.70;5.28;;;13.20;88.80;;;;;;5050142;28;19913;-78
2021/11/13 11:32:50;;;;;;;7.70;5.38;;;13.20;88.90;;;;;;5048243;28;20032;-79
2021/11/13 11:35:23;;;;;;;7.75;5.75;;;13.20;88.90;;;;;;5046219;28;20510;-79
2021/11/13 11:37:58;;;;;;;6.75;5.60;;;13.20;88.90;;;;;;5050840;28;20021;-79
2021/11/13 11:40:34;;;;;;;7.28;5.65;;;13.20;88.90;;;;;;5048787;28;20044;-79
2021/11/13 11:43:01;;;;;;;7.22;5.60;;;13.20;88.80;;;;;;5048346;28;20167;-78
2021/11/13 11:45:39;;;;;;;7.90;5.88;;;13.20;88.80;;;;;;5050153;28;20158;-79
2021/11/13 11:48:10;;;;;;;7.75;5.47;;;13.30;88.80;;;;;;5049951;28;20032;-79
2021/11/13 11:50:37;;;;;;;6.77;4.80;;;13.30;88.80;;;;;;5049892;28;20014;-78
2021/11/13 11:53:09;;;;;;;7.35;5.50;;;13.30;88.70;;;;;;5049485;28;20082;-79
2021/11/13 11:55:35;;;;;;;;;;;13.30;88.70;;;;;;5047628;28;20029;-79
2021/11/13 11:58:04;;;;;;;6.70;5.20;;;13.30;88.50;;;;;;5049072;28;19909;-79
2021/11/13 12:00:33;;;;;;;8.52;5.30;;;13.30;88.60;;;;;;5042132;28;20120;-79
2021/11/13 12:03:02;;;;;;;6.72;4.88;;;13.30;88.60;;;;;;5048305;28;20399;-79
2021/11/13 12:05:34;;;;;;;6.50;5.10;;;13.40;88.60;;;;;;5050191;28;20025;-79
2021/11/13 12:08:33;;;;;;;6.78;4.85;;;13.50;88.50;;;;;;5050262;28;20032;-79
2021/11/13 12:11:17;;;;;;;6.22;4.85;;;13.50;88.40;;;;;;5046595;28;20045;-78
2021/11/13 12:13:42;;;;;;;6.57;5.15;;;13.60;88.30;;;;;;5049647;28;20074;-79
2021/11/13 12:16:11;;;;;;;6.75;5.45;;;13.60;88.20;;;;;;5048687;28;20025;-78
2021/11/13 12:18:44;;;;;;;7.45;4.97;;;13.60;88.20;;;;;;5047606;28;20066;-76
2021/11/13 12:21:12;;;;;;;6.88;5.35;;;13.60;88.20;;;;;;5050686;28;20065;-78
2021/11/13 12:23:45;;;;;;;7.10;5.20;;;13.60;88.10;;;;;;5053298;28;20048;-77
2021/11/13 12:26:32;;;;;;;7.22;4.88;;;13.70;88.20;;;;;;5053475;28;20028;-77
2021/11/13 12:29:00;;;;;;;6.38;5.35;;;13.70;88.00;;;;;;5054009;28;20417;-76
2021/11/13 12:31:31;;;;;;;8.23;5.70;;;13.70;87.90;;;;;;5050180;28;20029;-78
2021/11/13 12:33:57;;;;;;;6.88;5.15;;;13.70;87.80;;;;;;5051497;28;20070;-76
2021/11/13 12:36:28;;;;;;;5.47;4.05;;;13.70;87.80;;;;;;5052429;28;20037;-77
2021/11/13 12:38:57;;;;;;;5.20;4.07;;;13.80;87.80;;;;;;5063538;28;20029;-76
2021/11/13 12:41:24;;;;;;;5.05;4.15;;;13.80;87.70;;;;;;5051575;28;20456;-76